createdAt,value
2022-09-29T00:00:58.195Z,0.00
2022-09-29T00:01:58.215Z,0.00
2022-09-29T00:02:58.186Z,0.00
2022-09-29T00:03:58.175Z,0.00
2022-09-29T00:04:58.126Z,0.00
2022-09-29T00:05:58.145Z,0.00
2022-09-29T00:06:58.115Z,0.00
2022-09-29T00:07:58.114Z,0.00
2022-09-29T00:08:58.097Z,0.00
2022-09-29T00:09:58.115Z,0.00
2022-09-29T00:10:58.083Z,0.00
2022-09-29T00:11:58.057Z,0.00
2022-09-29T00:12:58.046Z,0.00
2022-09-29T00:13:58.037Z,0.00
2022-09-29T00:14:58.028Z,0.00
2022-09-29T00:15:58.132Z,0.00
2022-09-29T00:16:58.017Z,0.00
2022-09-29T00:18:13.295Z,0.00
2022-09-29T00:18:58.986Z,0.00
2022-09-29T00:19:57.977Z,0.00
2022-09-29T00:20:57.978Z,0.00
2022-09-29T00:21:57.947Z,0.00
2022-09-29T00:22:57.937Z,0.00
2022-09-29T00:23:57.923Z,0.00
2022-09-29T00:24:57.928Z,0.00
2022-09-29T00:25:57.946Z,0.00
2022-09-29T00:26:57.896Z,0.00
2022-09-29T00:27:57.890Z,0.00
2022-09-29T00:28:57.888Z,0.00
2022-09-29T00:29:57.859Z,0.00
2022-09-29T00:30:57.869Z,0.00
2022-09-29T00:31:57.873Z,0.00
2022-09-29T00:32:57.830Z,0.00
2022-09-29T00:33:57.830Z,0.00
2022-09-29T00:34:57.809Z,0.00
2022-09-29T00:35:57.818Z,0.00
2022-09-29T00:36:57.783Z,0.00
2022-09-29T00:37:57.789Z,0.00
2022-09-29T00:38:57.792Z,0.00
2022-09-29T00:39:57.759Z,0.00
2022-09-29T00:40:57.769Z,0.00
2022-09-29T00:41:57.741Z,0.00
2022-09-29T00:42:57.731Z,0.00
2022-09-29T00:43:57.730Z,0.00
2022-09-29T00:44:57.700Z,0.00
2022-09-29T00:45:57.738Z,0.00
2022-09-29T00:46:57.711Z,0.00
2022-09-29T00:47:57.661Z,0.00
2022-09-29T00:48:57.710Z,0.00
2022-09-29T00:49:57.661Z,0.00
2022-09-29T00:50:57.659Z,0.00
2022-09-29T00:51:57.631Z,0.00
2022-09-29T00:52:57.642Z,0.00
2022-09-29T00:53:57.613Z,0.00
2022-09-29T00:54:57.611Z,0.00
2022-09-29T00:55:57.623Z,0.00
2022-09-29T00:56:57.584Z,0.00
2022-09-29T00:57:57.571Z,0.00
2022-09-29T00:58:57.552Z,0.00
2022-09-29T00:59:57.573Z,0.00
2022-09-29T01:00:57.572Z,0.00
2022-09-29T01:01:57.586Z,0.00
2022-09-29T01:02:57.520Z,0.00
2022-09-29T01:03:57.502Z,0.00
2022-09-29T01:04:57.483Z,0.00
2022-09-29T01:05:57.534Z,0.00
2022-09-29T01:06:57.485Z,0.00
2022-09-29T01:07:57.473Z,0.00
2022-09-29T01:08:57.453Z,0.00
2022-09-29T01:09:57.443Z,0.00
2022-09-29T01:10:57.454Z,0.00
2022-09-29T01:11:57.443Z,0.00
2022-09-29T01:12:57.415Z,0.00
2022-09-29T01:13:57.390Z,0.00
2022-09-29T01:14:57.384Z,0.00
2022-09-29T01:15:57.413Z,0.00
2022-09-29T01:16:57.385Z,0.00
2022-09-29T01:17:57.345Z,0.00
2022-09-29T01:18:57.344Z,0.00
2022-09-29T01:20:01.985Z,0.00
2022-09-29T01:20:58.314Z,0.00
2022-09-29T01:21:57.303Z,0.00
2022-09-29T01:22:57.312Z,0.00
2022-09-29T01:23:57.304Z,0.00
2022-09-29T01:24:57.275Z,0.00
2022-09-29T01:25:57.284Z,0.00
2022-09-29T01:26:57.255Z,0.00
2022-09-29T01:27:57.236Z,0.00
2022-09-29T01:28:57.245Z,0.00
2022-09-29T01:30:02.231Z,0.00
2022-09-29T01:30:57.221Z,0.00
2022-09-29T01:31:57.249Z,0.00
2022-09-29T01:32:57.172Z,0.00
2022-09-29T01:33:57.170Z,0.00
2022-09-29T01:34:57.154Z,0.00
2022-09-29T01:35:57.172Z,0.00
2022-09-29T01:36:57.152Z,0.00
2022-09-29T01:37:57.133Z,0.00
2022-09-29T01:38:57.123Z,0.00
2022-09-29T01:39:57.101Z,0.00
2022-09-29T01:40:57.162Z,0.00
2022-09-29T01:41:57.100Z,0.00
2022-09-29T01:42:57.096Z,0.00
2022-09-29T01:43:57.061Z,0.00
2022-09-29T01:44:57.073Z,0.00
2022-09-29T01:45:57.136Z,0.00
2022-09-29T01:46:57.015Z,0.00
2022-09-29T01:47:57.025Z,0.00
2022-09-29T01:48:57.046Z,0.00
2022-09-29T01:49:57.005Z,0.00
2022-09-29T01:50:56.985Z,0.00
2022-09-29T01:51:56.985Z,0.00
2022-09-29T01:52:56.969Z,0.00
2022-09-29T01:53:56.967Z,0.00
2022-09-29T01:54:56.985Z,0.00
2022-09-29T01:55:56.977Z,0.00
2022-09-29T01:56:56.925Z,0.00
2022-09-29T01:57:56.922Z,0.00
2022-09-29T01:58:56.916Z,0.00
2022-09-29T01:59:56.913Z,0.00
2022-09-29T02:00:56.934Z,0.00
2022-09-29T02:02:00.582Z,0.00
2022-09-29T02:02:56.866Z,0.00
2022-09-29T02:03:56.850Z,0.00
2022-09-29T02:04:56.863Z,0.00
2022-09-29T02:05:56.866Z,0.00
2022-09-29T02:06:56.826Z,0.00
2022-09-29T02:07:56.800Z,0.00
2022-09-29T02:08:56.798Z,0.00
2022-09-29T02:09:56.799Z,0.00
2022-09-29T02:10:56.798Z,0.00
2022-09-29T02:11:56.756Z,0.00
2022-09-29T02:12:56.758Z,0.00
2022-09-29T02:13:56.739Z,0.00
2022-09-29T02:14:56.739Z,0.00
2022-09-29T02:15:56.798Z,0.00
2022-09-29T02:16:56.738Z,0.00
2022-09-29T02:17:56.688Z,0.00
2022-09-29T02:18:58.559Z,0.00
2022-09-29T02:19:56.680Z,0.00
2022-09-29T02:20:56.677Z,0.00
2022-09-29T02:21:56.681Z,0.00
2022-09-29T02:22:56.660Z,0.00
2022-09-29T02:23:56.660Z,0.00
2022-09-29T02:24:56.632Z,0.00
2022-09-29T02:25:56.637Z,0.00
2022-09-29T02:26:56.629Z,0.00
2022-09-29T02:27:56.598Z,0.00
2022-09-29T02:28:56.603Z,0.00
2022-09-29T02:29:56.560Z,0.00
2022-09-29T02:30:56.559Z,0.00
2022-09-29T02:31:56.645Z,0.00
2022-09-29T02:32:56.562Z,0.00
2022-09-29T02:33:56.540Z,0.00
2022-09-29T02:34:56.542Z,0.00
2022-09-29T02:35:56.515Z,0.00
2022-09-29T02:36:56.511Z,0.00
2022-09-29T02:37:56.481Z,0.00
2022-09-29T02:38:56.531Z,0.00
2022-09-29T02:39:56.470Z,0.00
2022-09-29T02:40:56.489Z,0.00
2022-09-29T02:41:56.447Z,0.00
2022-09-29T02:42:56.431Z,0.00
2022-09-29T02:43:56.449Z,0.00
2022-09-29T02:44:56.420Z,0.00
2022-09-29T02:45:56.480Z,0.00
2022-09-29T02:46:56.393Z,0.00
2022-09-29T02:47:56.383Z,0.00
2022-09-29T02:48:56.374Z,0.00
2022-09-29T02:49:56.373Z,0.00
2022-09-29T02:50:56.362Z,0.00
2022-09-29T02:51:56.363Z,0.00
2022-09-29T02:52:56.334Z,0.00
2022-09-29T02:53:56.325Z,0.00
2022-09-29T02:54:56.323Z,0.00
2022-09-29T02:55:56.324Z,0.00
2022-09-29T02:56:56.284Z,0.00
2022-09-29T02:57:56.273Z,0.00
2022-09-29T02:58:56.254Z,0.00
2022-09-29T02:59:56.277Z,0.00
2022-09-29T03:00:56.300Z,0.00
2022-09-29T03:01:56.241Z,0.00
2022-09-29T03:02:56.235Z,0.00
2022-09-29T03:03:56.278Z,0.00
2022-09-29T03:04:56.223Z,0.00
2022-09-29T03:05:56.205Z,0.00
2022-09-29T03:06:56.185Z,0.00
2022-09-29T03:07:56.175Z,0.00
2022-09-29T03:08:56.173Z,0.00
2022-09-29T03:09:56.137Z,0.00
2022-09-29T03:10:56.146Z,0.00
2022-09-29T03:11:56.135Z,0.00
2022-09-29T03:12:56.125Z,0.00
2022-09-29T03:13:56.097Z,0.00
2022-09-29T03:14:56.087Z,0.00
2022-09-29T03:15:56.158Z,0.00
2022-09-29T03:16:56.077Z,0.00
2022-09-29T03:17:56.065Z,0.00
2022-09-29T03:18:56.067Z,0.00
2022-09-29T03:19:56.038Z,0.00
2022-09-29T03:20:56.026Z,0.00
2022-09-29T03:21:56.037Z,0.00
2022-09-29T03:22:56.017Z,0.00
2022-09-29T03:23:57.856Z,0.00
2022-09-29T03:24:55.998Z,0.00
2022-09-29T03:25:55.997Z,0.00
2022-09-29T03:26:55.979Z,0.00
2022-09-29T03:27:55.967Z,0.00
2022-09-29T03:28:55.939Z,0.00
2022-09-29T03:29:55.948Z,0.00
2022-09-29T03:30:55.948Z,0.00
2022-09-29T03:31:55.969Z,0.00
2022-09-29T03:32:55.898Z,0.00
2022-09-29T03:33:55.902Z,0.00
2022-09-29T03:34:55.889Z,0.00
2022-09-29T03:35:55.869Z,0.00
2022-09-29T03:36:55.857Z,0.00
2022-09-29T03:37:55.840Z,0.00
2022-09-29T03:38:55.848Z,0.00
2022-09-29T03:39:55.839Z,0.00
2022-09-29T03:40:55.850Z,0.00
2022-09-29T03:41:55.800Z,0.00
2022-09-29T03:42:55.791Z,0.00
2022-09-29T03:43:55.820Z,0.00
2022-09-29T03:44:55.788Z,0.00
2022-09-29T03:45:55.813Z,0.00
2022-09-29T03:46:55.793Z,0.00
2022-09-29T03:47:55.737Z,0.00
2022-09-29T03:48:55.741Z,0.00
2022-09-29T03:49:55.721Z,0.00
2022-09-29T03:50:55.711Z,0.00
2022-09-29T03:51:55.701Z,0.00
2022-09-29T03:52:55.713Z,0.00
2022-09-29T03:53:55.690Z,0.00
2022-09-29T03:54:55.682Z,0.00
2022-09-29T03:55:55.681Z,0.00
2022-09-29T03:56:55.673Z,0.00
2022-09-29T03:57:55.633Z,0.00
2022-09-29T03:58:55.633Z,0.00
2022-09-29T03:59:55.632Z,0.00
2022-09-29T04:00:55.704Z,0.00
2022-09-29T04:01:55.633Z,0.00
2022-09-29T04:02:55.605Z,0.00
2022-09-29T04:03:55.572Z,0.00
2022-09-29T04:04:55.583Z,0.00
2022-09-29T04:05:55.552Z,0.00
2022-09-29T04:06:55.533Z,0.00
2022-09-29T04:07:55.541Z,0.00
2022-09-29T04:08:55.525Z,0.00
2022-09-29T04:09:55.501Z,0.00
2022-09-29T04:10:55.537Z,0.00
2022-09-29T04:11:55.490Z,0.00
2022-09-29T04:12:55.495Z,0.00
2022-09-29T04:13:55.474Z,0.00
2022-09-29T04:14:55.463Z,0.00
2022-09-29T04:15:55.494Z,0.00
2022-09-29T04:16:55.465Z,0.00
2022-09-29T04:17:55.443Z,0.00
2022-09-29T04:18:55.420Z,0.00
2022-09-29T04:19:55.425Z,0.00
2022-09-29T04:20:56.110Z,0.00
2022-09-29T04:21:55.384Z,0.00
2022-09-29T04:22:55.384Z,0.00
2022-09-29T04:23:55.435Z,0.00
2022-09-29T04:24:55.386Z,0.00
2022-09-29T04:25:55.344Z,0.00
2022-09-29T04:26:55.347Z,0.00
2022-09-29T04:27:55.343Z,0.00
2022-09-29T04:28:55.306Z,0.00
2022-09-29T04:29:55.286Z,0.00
2022-09-29T04:30:55.296Z,0.00
2022-09-29T04:31:55.343Z,0.00
2022-09-29T04:32:55.256Z,0.00
2022-09-29T04:33:55.245Z,0.00
2022-09-29T04:34:55.237Z,0.00
2022-09-29T04:35:55.256Z,0.00
2022-09-29T04:36:55.238Z,0.00
2022-09-29T04:37:55.217Z,0.00
2022-09-29T04:38:55.207Z,0.00
2022-09-29T04:39:55.177Z,0.00
2022-09-29T04:40:55.318Z,0.00
2022-09-29T04:41:55.187Z,0.00
2022-09-29T04:42:55.490Z,0.00
2022-09-29T04:43:55.155Z,0.00
2022-09-29T04:44:55.129Z,0.00
2022-09-29T04:45:55.211Z,0.00
2022-09-29T04:46:55.149Z,0.00
2022-09-29T04:47:55.107Z,0.00
2022-09-29T04:48:55.108Z,0.00
2022-09-29T04:49:55.090Z,0.00
2022-09-29T04:50:55.088Z,0.00
2022-09-29T04:51:55.059Z,0.00
2022-09-29T04:52:55.070Z,0.00
2022-09-29T04:53:55.028Z,0.00
2022-09-29T04:54:55.039Z,0.00
2022-09-29T04:55:55.015Z,0.00
2022-09-29T04:56:55.012Z,0.00
2022-09-29T04:57:55.019Z,0.00
2022-09-29T04:58:54.987Z,0.00
2022-09-29T04:59:54.996Z,0.00
2022-09-29T05:00:55.051Z,0.00
2022-09-29T05:01:55.008Z,0.00
2022-09-29T05:02:54.949Z,0.00
2022-09-29T05:03:54.926Z,0.00
2022-09-29T05:04:54.951Z,0.00
2022-09-29T05:05:54.900Z,0.00
2022-09-29T05:06:54.909Z,0.00
2022-09-29T05:07:54.901Z,0.00
2022-09-29T05:08:54.880Z,0.00
2022-09-29T05:09:54.891Z,0.00
2022-09-29T05:10:54.864Z,0.00
2022-09-29T05:11:54.860Z,0.00
2022-09-29T05:12:54.855Z,0.00
2022-09-29T05:13:54.841Z,0.00
2022-09-29T05:14:54.831Z,0.00
2022-09-29T05:15:54.834Z,0.00
2022-09-29T05:16:54.885Z,0.00
2022-09-29T05:17:54.778Z,0.00
2022-09-29T05:18:54.771Z,0.00
2022-09-29T05:19:54.790Z,5.62
2022-09-29T05:21:16.260Z,5.62
2022-09-29T05:21:55.751Z,5.62
2022-09-29T05:22:54.842Z,5.62
2022-09-29T05:23:54.734Z,5.62
2022-09-29T05:24:54.716Z,5.62
2022-09-29T05:25:54.712Z,5.62
2022-09-29T05:26:58.299Z,11.25
2022-09-29T05:27:54.693Z,11.25
2022-09-29T05:28:54.665Z,11.25
2022-09-29T05:29:54.656Z,11.25
2022-09-29T05:30:54.665Z,11.25
2022-09-29T05:31:54.795Z,16.88
2022-09-29T05:32:58.877Z,16.88
2022-09-29T05:33:56.642Z,16.88
2022-09-29T05:34:54.604Z,16.88
2022-09-29T05:35:54.605Z,16.88
2022-09-29T05:36:55.274Z,16.88
2022-09-29T05:37:54.574Z,16.88
2022-09-29T05:38:55.651Z,16.88
2022-09-29T05:39:54.582Z,16.88
2022-09-29T05:40:54.668Z,22.50
2022-09-29T05:41:58.810Z,22.50
2022-09-29T05:42:55.658Z,16.88
2022-09-29T05:43:54.554Z,16.88
2022-09-29T05:44:55.223Z,16.88
2022-09-29T05:45:54.564Z,22.50
2022-09-29T05:46:54.679Z,22.50
2022-09-29T05:47:54.496Z,22.50
2022-09-29T05:48:54.876Z,22.50
2022-09-29T05:49:54.447Z,22.50
2022-09-29T05:50:55.157Z,28.12
2022-09-29T05:51:54.475Z,28.12
2022-09-29T05:52:55.125Z,33.75
2022-09-29T05:53:54.416Z,33.75
2022-09-29T05:54:54.413Z,39.38
2022-09-29T05:55:54.398Z,45.00
2022-09-29T05:56:54.366Z,45.00
2022-09-29T05:57:54.366Z,45.00
2022-09-29T05:58:54.347Z,39.38
2022-09-29T05:59:54.360Z,45.00
2022-09-29T06:00:54.358Z,45.00
2022-09-29T06:01:54.349Z,45.00
2022-09-29T06:02:54.316Z,45.00
2022-09-29T06:03:54.305Z,50.62
2022-09-29T06:04:54.289Z,56.25
2022-09-29T06:05:54.297Z,56.25
2022-09-29T06:06:54.276Z,56.25
2022-09-29T06:07:54.270Z,56.25
2022-09-29T06:08:54.249Z,56.25
2022-09-29T06:09:54.258Z,61.88
2022-09-29T06:10:54.237Z,61.88
2022-09-29T06:11:54.217Z,61.88
2022-09-29T06:12:54.229Z,61.88
2022-09-29T06:13:54.217Z,61.88
2022-09-29T06:14:54.216Z,56.25
2022-09-29T06:15:54.177Z,56.25
2022-09-29T06:16:54.254Z,56.25
2022-09-29T06:17:54.156Z,56.25
2022-09-29T06:18:54.139Z,61.88
2022-09-29T06:19:54.164Z,61.88
2022-09-29T06:20:54.126Z,67.50
2022-09-29T06:21:54.122Z,73.12
2022-09-29T06:22:54.110Z,78.75
2022-09-29T06:23:54.081Z,90.00
2022-09-29T06:24:54.110Z,90.00
2022-09-29T06:25:54.058Z,95.62
2022-09-29T06:26:54.045Z,101.25
2022-09-29T06:27:54.041Z,106.88
2022-09-29T06:28:54.040Z,112.50
2022-09-29T06:29:54.041Z,112.50
2022-09-29T06:30:54.010Z,118.12
2022-09-29T06:31:54.077Z,123.75
2022-09-29T06:32:54.010Z,123.75
2022-09-29T06:33:53.978Z,123.75
2022-09-29T06:34:58.441Z,118.12
2022-09-29T06:35:53.961Z,118.12
2022-09-29T06:36:53.971Z,106.88
2022-09-29T06:37:53.931Z,101.25
2022-09-29T06:38:53.911Z,95.62
2022-09-29T06:39:53.931Z,90.00
2022-09-29T06:40:53.937Z,90.00
2022-09-29T06:41:53.915Z,78.75
2022-09-29T06:42:53.880Z,78.75
2022-09-29T06:43:53.896Z,84.38
2022-09-29T06:44:54.852Z,90.00
2022-09-29T06:45:53.917Z,95.62
2022-09-29T06:46:53.863Z,101.25
2022-09-29T06:47:53.832Z,106.88
2022-09-29T06:48:53.833Z,112.50
2022-09-29T06:49:53.843Z,106.88
2022-09-29T06:51:05.047Z,106.88
2022-09-29T06:51:54.792Z,112.50
2022-09-29T06:53:03.355Z,118.12
2022-09-29T06:54:03.522Z,118.12
2022-09-29T06:54:54.791Z,123.75
2022-09-29T06:55:53.742Z,123.75
2022-09-29T06:56:53.723Z,123.75
2022-09-29T06:57:53.743Z,123.75
2022-09-29T06:58:53.724Z,118.12
2022-09-29T06:59:53.755Z,112.50
2022-09-29T07:00:53.783Z,112.50
2022-09-29T07:01:53.747Z,112.50
2022-09-29T07:02:53.665Z,123.75
2022-09-29T07:03:53.675Z,129.38
2022-09-29T07:04:53.654Z,140.62
2022-09-29T07:06:08.467Z,135.00
2022-09-29T07:06:54.666Z,135.00
2022-09-29T07:07:57.539Z,135.00
2022-09-29T07:08:54.617Z,140.62
2022-09-29T07:09:53.606Z,146.25
2022-09-29T07:10:53.606Z,151.88
2022-09-29T07:11:53.596Z,157.50
2022-09-29T07:12:53.565Z,168.75
2022-09-29T07:13:54.651Z,174.38
2022-09-29T07:14:53.553Z,174.38
2022-09-29T07:15:53.695Z,174.38
2022-09-29T07:16:53.556Z,168.75
2022-09-29T07:17:53.514Z,163.12
2022-09-29T07:18:53.508Z,157.50
2022-09-29T07:19:53.504Z,151.88
2022-09-29T07:20:53.468Z,146.25
2022-09-29T07:21:53.517Z,140.62
2022-09-29T07:22:53.466Z,135.00
2022-09-29T07:23:53.438Z,135.00
2022-09-29T07:24:53.447Z,146.25
2022-09-29T07:25:53.428Z,151.88
2022-09-29T07:26:53.428Z,157.50
2022-09-29T07:27:53.405Z,157.50
2022-09-29T07:28:53.378Z,157.50
2022-09-29T07:30:03.120Z,157.50
2022-09-29T07:30:58.749Z,151.88
2022-09-29T07:31:54.399Z,151.88
2022-09-29T07:33:01.680Z,146.25
2022-09-29T07:33:54.359Z,146.25
2022-09-29T07:34:53.357Z,151.88
2022-09-29T07:35:53.331Z,157.50
2022-09-29T07:36:53.301Z,163.12
2022-09-29T07:37:53.297Z,174.38
2022-09-29T07:38:53.289Z,174.38
2022-09-29T07:39:53.289Z,185.62
2022-09-29T07:40:53.304Z,191.25
2022-09-29T07:41:53.282Z,196.88
2022-09-29T07:42:53.254Z,196.88
2022-09-29T07:43:53.250Z,191.25
2022-09-29T07:44:53.239Z,180.00
2022-09-29T07:45:53.296Z,174.38
2022-09-29T07:46:53.220Z,174.38
2022-09-29T07:47:53.201Z,180.00
2022-09-29T07:48:53.201Z,180.00
2022-09-29T07:49:53.170Z,191.25
2022-09-29T07:50:53.151Z,196.88
2022-09-29T07:51:53.171Z,202.50
2022-09-29T07:52:53.148Z,208.12
2022-09-29T07:53:53.121Z,219.38
2022-09-29T07:54:53.132Z,230.62
2022-09-29T07:55:53.113Z,247.50
2022-09-29T07:56:53.121Z,253.12
2022-09-29T07:57:53.092Z,247.50
2022-09-29T07:58:53.063Z,241.88
2022-09-29T07:59:53.541Z,230.62
2022-09-29T08:00:53.047Z,230.62
2022-09-29T08:01:53.126Z,225.00
2022-09-29T08:02:53.020Z,225.00
2022-09-29T08:03:53.043Z,219.38
2022-09-29T08:04:55.935Z,213.75
2022-09-29T08:05:54.004Z,208.12
2022-09-29T08:06:53.004Z,208.12
2022-09-29T08:07:52.971Z,213.75
2022-09-29T08:09:04.736Z,219.38
2022-09-29T08:09:54.011Z,225.00
2022-09-29T08:10:53.986Z,236.25
2022-09-29T08:12:03.191Z,247.50
2022-09-29T08:12:53.914Z,264.38
2022-09-29T08:13:52.924Z,270.00
2022-09-29T08:14:52.915Z,275.62
2022-09-29T08:15:52.904Z,275.62
2022-09-29T08:16:52.923Z,281.25
2022-09-29T08:17:52.874Z,281.25
2022-09-29T08:18:52.882Z,286.88
2022-09-29T08:19:52.843Z,286.88
2022-09-29T08:20:52.825Z,292.50
2022-09-29T08:21:52.846Z,298.12
2022-09-29T08:22:52.816Z,298.12
2022-09-29T08:23:52.806Z,303.75
2022-09-29T08:24:52.786Z,315.00
2022-09-29T08:26:00.353Z,320.62
2022-09-29T08:26:53.777Z,320.62
2022-09-29T08:27:55.807Z,331.88
2022-09-29T08:29:05.217Z,337.50
2022-09-29T08:29:53.751Z,337.50
2022-09-29T08:30:52.736Z,337.50
2022-09-29T08:31:52.782Z,337.50
2022-09-29T08:32:52.717Z,337.50
2022-09-29T08:33:52.706Z,337.50
2022-09-29T08:34:52.677Z,337.50
2022-09-29T08:35:52.688Z,331.88
2022-09-29T08:36:52.668Z,326.25
2022-09-29T08:37:52.668Z,326.25
2022-09-29T08:38:52.654Z,326.25
2022-09-29T08:39:52.630Z,326.25
2022-09-29T08:40:52.684Z,337.50
2022-09-29T08:41:52.626Z,343.12
2022-09-29T08:42:52.629Z,348.75
2022-09-29T08:43:52.589Z,365.62
2022-09-29T08:44:52.646Z,371.25
2022-09-29T08:46:00.153Z,376.88
2022-09-29T08:47:03.883Z,382.50
2022-09-29T08:47:53.590Z,376.88
2022-09-29T08:48:58.416Z,365.62
2022-09-29T08:49:53.540Z,343.12
2022-09-29T08:50:52.509Z,326.25
2022-09-29T08:51:52.519Z,315.00
2022-09-29T08:52:52.975Z,309.38
2022-09-29T08:54:01.547Z,315.00
2022-09-29T08:54:53.671Z,315.00
2022-09-29T08:55:52.469Z,309.38
2022-09-29T08:56:52.446Z,315.00
2022-09-29T08:57:52.472Z,337.50
2022-09-29T08:58:52.446Z,354.38
2022-09-29T08:59:52.433Z,348.75
2022-09-29T09:00:52.461Z,348.75
2022-09-29T09:01:52.403Z,354.38
2022-09-29T09:02:56.550Z,360.00
2022-09-29T09:03:52.383Z,371.25
2022-09-29T09:04:52.361Z,365.62
2022-09-29T09:05:52.384Z,360.00
2022-09-29T09:06:52.352Z,360.00
2022-09-29T09:07:52.354Z,360.00
2022-09-29T09:08:52.334Z,360.00
2022-09-29T09:09:52.334Z,354.38
2022-09-29T09:10:52.313Z,343.12
2022-09-29T09:11:52.304Z,348.75
2022-09-29T09:12:52.295Z,360.00
2022-09-29T09:13:52.295Z,365.62
2022-09-29T09:14:52.255Z,371.25
2022-09-29T09:15:52.285Z,382.50
2022-09-29T09:16:52.340Z,399.38
2022-09-29T09:17:52.253Z,405.00
2022-09-29T09:18:52.265Z,410.62
2022-09-29T09:19:52.233Z,405.00
2022-09-29T09:20:52.208Z,399.38
2022-09-29T09:21:52.204Z,393.75
2022-09-29T09:22:52.199Z,405.00
2022-09-29T09:23:54.365Z,421.88
2022-09-29T09:24:52.168Z,433.12
2022-09-29T09:25:52.137Z,438.75
2022-09-29T09:26:52.160Z,444.38
2022-09-29T09:27:52.142Z,444.38
2022-09-29T09:28:52.109Z,455.62
2022-09-29T09:29:52.112Z,461.25
2022-09-29T09:30:52.169Z,461.25
2022-09-29T09:31:52.133Z,455.62
2022-09-29T09:32:52.115Z,455.62
2022-09-29T09:34:03.179Z,450.00
2022-09-29T09:34:55.624Z,444.38
2022-09-29T09:35:58.739Z,438.75
2022-09-29T09:37:03.167Z,438.75
2022-09-29T09:37:53.023Z,433.12
2022-09-29T09:38:52.500Z,421.88
2022-09-29T09:39:52.049Z,416.25
2022-09-29T09:40:52.010Z,405.00
2022-09-29T09:41:51.999Z,399.38
2022-09-29T09:42:51.970Z,399.38
2022-09-29T09:43:52.016Z,399.38
2022-09-29T09:44:51.942Z,393.75
2022-09-29T09:45:51.989Z,399.38
2022-09-29T09:46:51.929Z,399.38
2022-09-29T09:47:51.941Z,405.00
2022-09-29T09:48:51.923Z,405.00
2022-09-29T09:49:51.902Z,416.25
2022-09-29T09:50:51.892Z,421.88
2022-09-29T09:51:51.870Z,438.75
2022-09-29T09:52:51.890Z,444.38
2022-09-29T09:53:51.856Z,450.00
2022-09-29T09:54:51.856Z,450.00
2022-09-29T09:55:51.854Z,455.62
2022-09-29T09:56:51.832Z,461.25
2022-09-29T09:57:51.845Z,466.88
2022-09-29T09:58:51.814Z,472.50
2022-09-29T09:59:55.227Z,472.50
2022-09-29T10:00:52.814Z,478.12
2022-09-29T10:01:51.765Z,489.38
2022-09-29T10:02:51.836Z,489.38
2022-09-29T10:03:51.775Z,489.38
2022-09-29T10:04:51.734Z,500.62
2022-09-29T10:05:51.755Z,500.62
2022-09-29T10:06:51.706Z,511.88
2022-09-29T10:07:51.705Z,528.75
2022-09-29T10:08:51.699Z,540.00
2022-09-29T10:09:51.708Z,540.00
2022-09-29T10:10:58.534Z,545.62
2022-09-29T10:11:52.680Z,562.50
2022-09-29T10:12:52.500Z,568.12
2022-09-29T10:13:51.637Z,573.75
2022-09-29T10:14:51.646Z,573.75
2022-09-29T10:15:51.636Z,579.38
2022-09-29T10:16:51.658Z,568.12
2022-09-29T10:17:51.619Z,551.25
2022-09-29T10:18:51.609Z,534.38
2022-09-29T10:19:51.592Z,517.50
2022-09-29T10:20:51.589Z,506.25
2022-09-29T10:21:51.560Z,500.62
2022-09-29T10:22:51.924Z,506.25
2022-09-29T10:23:51.543Z,528.75
2022-09-29T10:24:51.509Z,562.50
2022-09-29T10:25:51.544Z,596.25
2022-09-29T10:26:51.570Z,624.38
2022-09-29T10:27:51.500Z,652.50
2022-09-29T10:28:51.483Z,680.62
2022-09-29T10:29:51.501Z,708.75
2022-09-29T10:30:51.541Z,720.00
2022-09-29T10:31:51.460Z,736.88
2022-09-29T10:32:51.443Z,748.12
2022-09-29T10:33:51.453Z,765.00
2022-09-29T10:34:51.424Z,781.88
2022-09-29T10:35:51.439Z,810.00
2022-09-29T10:36:51.430Z,832.50
2022-09-29T10:37:51.382Z,855.00
2022-09-29T10:38:51.391Z,894.38
2022-09-29T10:39:51.354Z,900.00
2022-09-29T10:40:51.354Z,883.12
2022-09-29T10:41:51.353Z,916.88
2022-09-29T10:42:51.441Z,883.12
2022-09-29T10:43:51.325Z,877.50
2022-09-29T10:44:51.306Z,883.12
2022-09-29T10:45:51.377Z,866.25
2022-09-29T10:46:51.295Z,866.25
2022-09-29T10:47:51.284Z,804.38
2022-09-29T10:48:51.266Z,787.50
2022-09-29T10:49:51.246Z,725.62
2022-09-29T10:50:51.292Z,725.62
2022-09-29T10:51:51.247Z,725.62
2022-09-29T10:52:51.218Z,748.12
2022-09-29T10:53:51.228Z,759.38
2022-09-29T10:54:51.187Z,776.25
2022-09-29T10:55:51.189Z,781.88
2022-09-29T10:56:51.177Z,770.62
2022-09-29T10:57:51.187Z,725.62
2022-09-29T10:59:00.245Z,675.00
2022-09-29T10:59:52.129Z,669.38
2022-09-29T11:00:51.254Z,691.88
2022-09-29T11:01:51.108Z,708.75
2022-09-29T11:02:51.132Z,708.75
2022-09-29T11:03:51.089Z,691.88
2022-09-29T11:04:51.080Z,663.75
2022-09-29T11:05:51.069Z,624.38
2022-09-29T11:06:51.061Z,663.75
2022-09-29T11:07:51.081Z,658.12
2022-09-29T11:08:51.090Z,624.38
2022-09-29T11:09:51.022Z,601.88
2022-09-29T11:10:51.020Z,585.00
2022-09-29T11:11:51.001Z,601.88
2022-09-29T11:12:50.998Z,573.75
2022-09-29T11:13:50.983Z,556.88
2022-09-29T11:14:50.985Z,585.00
2022-09-29T11:15:50.978Z,590.62
2022-09-29T11:16:51.013Z,635.62
2022-09-29T11:17:50.966Z,590.62
2022-09-29T11:18:50.955Z,528.75
2022-09-29T11:19:50.944Z,495.00
2022-09-29T11:20:50.923Z,444.38
2022-09-29T11:21:50.904Z,421.88
2022-09-29T11:22:50.918Z,421.88
2022-09-29T11:23:51.038Z,416.25
2022-09-29T11:24:50.896Z,405.00
2022-09-29T11:25:50.861Z,393.75
2022-09-29T11:26:50.869Z,388.12
2022-09-29T11:27:50.846Z,399.38
2022-09-29T11:28:50.847Z,399.38
2022-09-29T11:29:50.809Z,405.00
2022-09-29T11:30:50.910Z,388.12
2022-09-29T11:31:50.807Z,376.88
2022-09-29T11:32:50.809Z,360.00
2022-09-29T11:33:50.796Z,348.75
2022-09-29T11:34:50.804Z,331.88
2022-09-29T11:35:50.748Z,326.25
2022-09-29T11:36:50.789Z,331.88
2022-09-29T11:37:50.758Z,320.62
2022-09-29T11:38:50.728Z,303.75
2022-09-29T11:39:50.706Z,298.12
2022-09-29T11:40:50.710Z,315.00
2022-09-29T11:41:50.689Z,348.75
2022-09-29T11:42:50.680Z,365.62
2022-09-29T11:43:50.705Z,382.50
2022-09-29T11:44:50.690Z,405.00
2022-09-29T11:45:50.657Z,545.62
2022-09-29T11:46:50.651Z,472.50
2022-09-29T11:47:50.621Z,506.25
2022-09-29T11:48:50.633Z,590.62
2022-09-29T11:49:50.624Z,624.38
2022-09-29T11:50:50.602Z,753.75
2022-09-29T11:51:50.574Z,641.25
2022-09-29T11:52:50.571Z,697.50
2022-09-29T11:53:50.552Z,601.88
2022-09-29T11:54:50.554Z,528.75
2022-09-29T11:55:50.552Z,461.25
2022-09-29T11:56:50.535Z,483.75
2022-09-29T11:57:50.522Z,416.25
2022-09-29T11:58:50.526Z,348.75
2022-09-29T11:59:50.484Z,354.38
2022-09-29T12:00:50.705Z,360.00
2022-09-29T12:01:50.485Z,360.00
2022-09-29T12:02:50.529Z,309.38
2022-09-29T12:03:50.543Z,309.38
2022-09-29T12:04:50.435Z,286.88
2022-09-29T12:05:50.436Z,275.62
2022-09-29T12:06:50.436Z,275.62
2022-09-29T12:07:50.405Z,292.50
2022-09-29T12:08:50.427Z,320.62
2022-09-29T12:09:50.400Z,337.50
2022-09-29T12:10:50.387Z,382.50
2022-09-29T12:12:11.703Z,416.25
2022-09-29T12:12:51.352Z,624.38
2022-09-29T12:13:50.431Z,821.25
2022-09-29T12:14:50.350Z,556.88
2022-09-29T12:15:50.321Z,866.25
2022-09-29T12:16:50.339Z,871.88
2022-09-29T12:17:50.309Z,1096.88
2022-09-29T12:18:50.290Z,849.38
2022-09-29T12:19:50.301Z,450.00
2022-09-29T12:20:50.279Z,354.38
2022-09-29T12:21:50.253Z,309.38
2022-09-29T12:22:50.260Z,320.62
2022-09-29T12:23:50.279Z,315.00
2022-09-29T12:24:50.233Z,320.62
2022-09-29T12:25:50.221Z,360.00
2022-09-29T12:26:50.216Z,354.38
2022-09-29T12:27:50.221Z,354.38
2022-09-29T12:28:50.183Z,388.12
2022-09-29T12:29:50.204Z,410.62
2022-09-29T12:30:50.223Z,399.38
2022-09-29T12:31:50.158Z,450.00
2022-09-29T12:32:50.154Z,478.12
2022-09-29T12:33:50.135Z,523.12
2022-09-29T12:34:50.145Z,590.62
2022-09-29T12:35:50.146Z,669.38
2022-09-29T12:36:50.119Z,680.62
2022-09-29T12:37:50.128Z,613.12
2022-09-29T12:38:50.075Z,562.50
2022-09-29T12:39:50.075Z,545.62
2022-09-29T12:40:50.075Z,489.38
2022-09-29T12:41:50.078Z,511.88
2022-09-29T12:42:50.049Z,658.12
2022-09-29T12:43:50.033Z,697.50
2022-09-29T12:44:50.047Z,720.00
2022-09-29T12:45:50.070Z,2182.50
2022-09-29T12:46:49.997Z,3245.62
2022-09-29T12:47:50.018Z,2700.00
2022-09-29T12:48:49.969Z,2390.62
2022-09-29T12:49:49.969Z,1006.88
2022-09-29T12:50:49.968Z,810.00